Time;durP1;ratioP1;P1;durP2;ratioP2;P2;SDS_P1;SDS_P2;PMS_P1;PMS_P2;Temp;Humidity;BMP_temperature;BMP_pressure;BME280_temperature;BME280_humidity;BME280_pressure;Samples;Min_cycle;Max_cycle;Signal;HPM_P1;HPM_P2
2020/12/18 00:00:35;;;;;;;13.43;5.55;;;10.10;84.10;;;;;;5114994;28;20374;-76
2020/12/18 00:03:01;;;;;;;7.63;3.90;;;10.00;84.30;;;;;;5115195;28;20024;-76
2020/12/18 00:05:32;;;;;;;5.18;3.00;;;10.10;84.30;;;;;;5115642;28;20043;-75
2020/12/18 00:07:58;;;;;;;9.88;3.38;;;10.10;84.30;;;;;;5115906;28;20027;-76
2020/12/18 00:10:26;;;;;;;2.92;2.00;;;10.10;84.30;;;;;;5114897;28;20038;-75
2020/12/18 00:12:52;;;;;;;11.00;3.88;;;10.10;84.20;;;;;;5115430;28;20039;-75
2020/12/18 00:15:21;;;;;;;9.35;2.88;;;10.10;84.20;;;;;;5115743;28;20027;-75
2020/12/18 00:17:47;;;;;;;7.65;3.92;;;10.10;84.10;;;;;;5114572;28;20032;-75
2020/12/18 00:20:13;;;;;;;9.20;4.53;;;10.10;84.00;;;;;;5115399;28;20054;-74
2020/12/18 00:22:38;;;;;;;15.73;6.38;;;10.10;83.90;;;;;;5115444;28;20409;-75
2020/12/18 00:25:04;;;;;;;4.35;2.67;;;10.10;83.90;;;;;;5114372;28;20035;-75
2020/12/18 00:27:29;;;;;;;5.90;3.90;;;10.10;83.90;;;;;;5115341;28;20043;-74
2020/12/18 00:29:55;;;;;;;9.68;4.22;;;10.10;83.80;;;;;;5114586;28;20032;-75
2020/12/18 00:32:21;;;;;;;4.15;2.97;;;10.10;83.70;;;;;;5115180;28;20398;-75
2020/12/18 00:34:46;;;;;;;4.45;2.72;;;10.00;83.60;;;;;;5114749;28;20028;-75
2020/12/18 00:37:12;;;;;;;3.38;1.88;;;10.10;83.70;;;;;;5114158;28;20035;-75
2020/12/18 00:39:38;;;;;;;4.70;2.08;;;10.00;83.60;;;;;;5115243;28;20027;-75
2020/12/18 00:42:03;;;;;;;14.80;3.85;;;10.00;83.60;;;;;;5114892;28;20042;-75
2020/12/18 00:44:29;;;;;;;4.95;3.35;;;10.00;83.50;;;;;;5114165;28;20107;-75
2020/12/18 00:46:54;;;;;;;8.45;4.38;;;10.00;83.40;;;;;;5115068;27;20386;-75
2020/12/18 00:49:20;;;;;;;11.73;4.25;;;10.00;83.60;;;;;;5115056;28;20094;-75
2020/12/18 00:51:51;;;;;;;2.38;2.17;;;10.00;83.60;;;;;;5112887;28;20172;-75
2020/12/18 00:54:16;;;;;;;9.98;3.22;;;9.90;83.60;;;;;;5114960;28;20020;-75
2020/12/18 00:56:45;;;;;;;11.30;4.68;;;9.90;83.60;;;;;;5114462;28;20521;-75
2020/12/18 00:59:11;;;;;;;6.28;3.67;;;9.90;83.80;;;;;;5112681;28;20027;-74
2020/12/18 01:01:37;;;;;;;9.30;2.60;;;9.90;83.60;;;;;;5092343;28;20024;-75
2020/12/18 01:04:04;;;;;;;10.10;4.45;;;9.90;83.70;;;;;;5092696;28;20035;-75
2020/12/18 01:06:30;;;;;;;12.20;4.25;;;9.90;83.80;;;;;;5091803;28;20093;-75
2020/12/18 01:08:59;;;;;;;8.30;2.65;;;9.80;83.70;;;;;;5092607;28;20489;-75
2020/12/18 01:11:29;;;;;;;10.65;2.45;;;9.80;83.80;;;;;;5092635;28;20415;-75
2020/12/18 01:13:55;;;;;;;3.63;2.28;;;9.80;83.80;;;;;;5103771;28;20038;-75
2020/12/18 01:16:22;;;;;;;9.57;3.42;;;9.80;83.80;;;;;;5112877;28;20058;-75
2020/12/18 01:18:55;;;;;;;4.30;1.98;;;9.70;83.90;;;;;;5112966;28;20020;-75
2020/12/18 01:21:21;;;;;;;6.00;3.28;;;9.70;84.00;;;;;;5112058;28;20482;-75
2020/12/18 01:23:47;;;;;;;3.70;2.55;;;9.70;84.20;;;;;;5113934;28;20028;-74
2020/12/18 01:26:14;;;;;;;5.88;3.45;;;9.60;84.20;;;;;;5129062;27;20043;-74
2020/12/18 01:28:41;;;;;;;9.07;2.47;;;9.60;84.40;;;;;;5112340;28;20044;-75
2020/12/18 01:31:07;;;;;;;7.00;2.58;;;9.60;84.60;;;;;;5113598;28;20028;-75
2020/12/18 01:33:34;;;;;;;2.42;2.10;;;9.50;84.70;;;;;;5113271;28;20467;-75
2020/12/18 01:36:08;;;;;;;5.65;3.10;;;9.50;84.90;;;;;;5112788;28;20027;-75
2020/12/18 01:38:36;;;;;;;5.18;3.08;;;9.50;85.00;;;;;;5112897;28;20020;-75
2020/12/18 01:41:02;;;;;;;2.78;1.67;;;9.50;85.00;;;;;;5112188;28;20394;-75
2020/12/18 01:43:28;;;;;;;8.40;3.53;;;9.50;85.00;;;;;;5113927;28;20031;-75
2020/12/18 01:45:58;;;;;;;3.38;2.05;;;9.50;85.10;;;;;;5113725;28;20044;-75
2020/12/18 01:48:28;;;;;;;2.35;1.90;;;9.50;85.10;;;;;;5111964;28;20027;-75
2020/12/18 01:51:00;;;;;;;7.60;3.05;;;9.50;85.20;;;;;;5113020;28;20043;-75
2020/12/18 01:53:29;;;;;;;6.03;3.30;;;9.40;85.30;;;;;;5114104;28;20081;-75
2020/12/18 01:56:12;;;;;;;4.20;2.88;;;9.40;85.40;;;;;;5111844;28;20031;-75
2020/12/18 01:58:43;;;;;;;1.67;1.38;;;9.40;85.50;;;;;;5113806;28;20027;-75
2020/12/18 02:01:15;;;;;;;5.18;2.22;;;9.40;85.60;;;;;;5112437;28;20024;-75
2020/12/18 02:03:55;;;;;;;8.38;1.85;;;9.40;85.60;;;;;;5112792;28;20382;-75
2020/12/18 02:06:32;;;;;;;6.35;3.60;;;9.40;85.60;;;;;;5112681;28;20042;-75
2020/12/18 02:09:13;;;;;;;11.23;3.47;;;9.40;85.50;;;;;;5111718;28;20039;-75
2020/12/18 02:11:43;;;;;;;6.65;3.30;;;9.40;85.40;;;;;;5113172;28;20047;-75
2020/12/18 02:14:13;;;;;;;4.28;2.80;;;9.50;85.40;;;;;;5117754;28;20081;-75
2020/12/18 02:16:42;;;;;;;7.72;2.50;;;9.50;85.40;;;;;;5115863;28;20122;-75
2020/12/18 02:19:19;;;;;;;10.27;4.17;;;9.40;85.20;;;;;;5116964;28;20367;-75
2020/12/18 02:21:45;;;;;;;7.75;3.28;;;9.50;85.20;;;;;;5116605;28;20372;-75
2020/12/18 02:24:25;;;;;;;2.20;1.38;;;9.50;85.10;;;;;;5115791;28;20035;-75
2020/12/18 02:26:51;;;;;;;2.85;1.88;;;9.50;85.00;;;;;;5133412;27;20036;-75
2020/12/18 02:29:18;;;;;;;6.28;1.58;;;9.50;84.70;;;;;;5133361;27;20391;-75
2020/12/18 02:31:53;;;;;;;4.03;2.35;;;9.50;84.60;;;;;;5115949;28;20035;-75
2020/12/18 02:34:28;;;;;;;12.95;1.70;;;9.50;84.60;;;;;;5116469;28;20023;-75
2020/12/18 02:37:01;;;;;;;4.07;2.65;;;9.50;84.60;;;;;;5115631;28;20023;-75
2020/12/18 02:39:31;;;;;;;7.32;2.92;;;9.50;84.70;;;;;;5116442;28;20020;-75
2020/12/18 02:42:00;;;;;;;3.53;1.98;;;9.40;84.70;;;;;;5116092;28;20497;-75
2020/12/18 02:44:42;;;;;;;4.07;2.65;;;9.40;84.80;;;;;;5115284;28;20076;-75
2020/12/18 02:47:40;;;;;;;3.53;2.10;;;9.40;84.90;;;;;;5072040;28;20047;-74
2020/12/18 02:50:15;;;;;;;3.95;2.10;;;9.40;84.90;;;;;;5115591;28;20478;-75
2020/12/18 02:52:50;;;;;;;7.93;2.50;;;9.40;85.00;;;;;;5115441;28;20076;-75
2020/12/18 02:55:34;;;;;;;11.27;2.13;;;9.30;84.90;;;;;;5117314;28;20054;-75
2020/12/18 02:58:25;;;;;;;6.10;2.78;;;9.40;84.90;;;;;;5093244;28;20122;-74
2020/12/18 03:00:54;;;;;;;6.70;2.90;;;9.40;84.90;;;;;;5109731;28;20020;-74
2020/12/18 03:03:23;;;;;;;3.50;2.17;;;9.30;84.90;;;;;;5115409;28;20039;-74
2020/12/18 03:05:51;;;;;;;8.85;3.42;;;9.30;85.00;;;;;;5115611;28;20042;-74
2020/12/18 03:08:28;;;;;;;6.55;2.83;;;9.30;84.90;;;;;;5132546;27;20034;-74
2020/12/18 03:11:03;;;;;;;4.00;2.40;;;9.40;85.00;;;;;;5115475;28;20084;-74
2020/12/18 03:13:29;;;;;;;0.93;0.82;;;9.30;84.90;;;;;;5113827;28;20051;-74
2020/12/18 03:15:55;;;;;;;9.50;2.92;;;9.30;84.80;;;;;;5115629;28;20051;-74
2020/12/18 03:18:45;;;;;;;10.95;3.35;;;9.30;84.80;;;;;;5114439;28;20059;-74
2020/12/18 03:21:14;;;;;;;4.43;2.40;;;9.30;84.80;;;;;;5114864;28;20486;-74
2020/12/18 03:23:58;;;;;;;6.75;4.03;;;9.30;84.80;;;;;;5116114;28;20043;-74
2020/12/18 03:26:42;;;;;;;;;;;9.40;84.70;;;;;;5115998;28;20055;-74
2020/12/18 03:29:16;;;;;;;7.40;4.20;;;9.40;84.60;;;;;;5111582;28;20421;-75
2020/12/18 03:31:43;;;;;;;5.63;2.58;;;9.40;84.40;;;;;;5094422;28;20024;-75
2020/12/18 03:34:09;;;;;;;5.25;1.98;;;9.40;84.40;;;;;;5093651;28;20028;-75
2020/12/18 03:36:42;;;;;;;7.93;3.55;;;9.50;84.50;;;;;;5094467;28;20031;-74
2020/12/18 03:39:12;;;;;;;16.30;5.55;;;9.50;84.30;;;;;;5095676;28;20030;-74
2020/12/18 03:41:46;;;;;;;13.30;4.30;;;9.50;84.30;;;;;;5093700;28;20020;-74
2020/12/18 03:44:13;;;;;;;16.77;5.78;;;9.40;84.00;;;;;;5094334;28;20059;-75
2020/12/18 03:46:39;;;;;;;3.17;1.60;;;9.50;84.00;;;;;;5094230;28;20039;-75
2020/12/18 03:49:12;;;;;;;13.30;6.00;;;9.50;83.90;;;;;;5093675;28;20386;-75
2020/12/18 03:51:49;;;;;;;7.38;4.45;;;9.50;83.70;;;;;;5094198;28;20040;-74
2020/12/18 03:54:21;;;;;;;8.27;3.25;;;9.50;83.70;;;;;;5093617;28;20024;-75
2020/12/18 03:57:08;;;;;;;0.68;0.50;;;9.50;83.60;;;;;;5095069;28;20032;-74
2020/12/18 03:59:58;;;;;;;5.65;2.90;;;9.50;83.60;;;;;;5094187;28;20059;-75
2020/12/18 04:02:44;;;;;;;11.77;4.80;;;9.50;83.50;;;;;;5093757;28;20035;-75
2020/12/18 04:05:12;;;;;;;6.78;2.83;;;9.50;83.50;;;;;;5094286;28;20047;-75
2020/12/18 04:07:40;;;;;;;5.63;3.35;;;9.40;83.40;;;;;;5093923;28;20024;-75
2020/12/18 04:10:16;;;;;;;9.80;4.10;;;9.40;83.40;;;;;;5093166;28;20119;-74
2020/12/18 04:12:58;;;;;;;11.35;5.03;;;9.50;83.40;;;;;;5093860;28;20032;-74
2020/12/18 04:15:24;;;;;;;19.80;5.90;;;9.50;83.30;;;;;;5093329;28;20024;-75
2020/12/18 04:17:49;;;;;;;8.02;4.38;;;9.40;83.30;;;;;;5095138;28;20399;-75
2020/12/18 04:20:16;;;;;;;5.47;2.78;;;9.50;83.30;;;;;;5093742;28;20021;-75
2020/12/18 04:22:56;;;;;;;12.63;4.22;;;9.40;83.10;;;;;;5094261;28;20039;-75
2020/12/18 04:25:40;;;;;;;12.75;5.35;;;9.50;83.20;;;;;;5093781;28;20042;-75
2020/12/18 04:28:06;;;;;;;14.00;5.50;;;9.50;83.10;;;;;;5093408;28;20399;-75
2020/12/18 04:30:32;;;;;;;11.60;5.40;;;9.50;83.10;;;;;;5092970;28;20031;-75
2020/12/18 04:32:58;;;;;;;10.00;4.88;;;9.50;83.00;;;;;;5093486;28;20067;-75
2020/12/18 04:35:24;;;;;;;6.13;3.28;;;9.50;83.00;;;;;;5094223;28;20052;-75
2020/12/18 04:38:05;;;;;;;11.40;4.68;;;9.50;82.90;;;;;;5094292;28;20024;-75
2020/12/18 04:40:52;;;;;;;16.67;5.93;;;9.50;82.70;;;;;;5094480;28;20483;-75
2020/12/18 04:43:24;;;;;;;10.97;5.93;;;9.50;82.80;;;;;;5092582;28;20781;-75
2020/12/18 04:45:58;;;;;;;10.98;5.40;;;9.50;82.60;;;;;;5093295;28;20522;-75
2020/12/18 04:48:31;;;;;;;7.03;4.30;;;9.50;82.60;;;;;;5094472;28;20035;-75
2020/12/18 04:50:57;;;;;;;5.68;3.92;;;9.50;82.50;;;;;;5092535;28;20489;-75
2020/12/18 04:53:32;;;;;;;2.80;1.80;;;9.50;82.50;;;;;;5093249;28;20081;-75
2020/12/18 04:56:25;;;;;;;3.53;2.35;;;9.50;82.40;;;;;;5093316;28;20165;-75
2020/12/18 04:59:01;;;;;;;9.23;3.63;;;9.50;82.30;;;;;;5093903;28;20036;-75
2020/12/18 05:01:45;;;;;;;7.05;3.90;;;9.40;82.30;;;;;;5089551;28;20067;-74
2020/12/18 05:04:14;;;;;;;9.50;3.97;;;9.40;82.20;;;;;;5092151;28;20085;-74
2020/12/18 05:06:47;;;;;;;10.98;7.10;;;9.40;82.30;;;;;;5093888;28;20059;-75
2020/12/18 05:09:19;;;;;;;11.93;4.70;;;9.40;82.60;;;;;;5093019;28;20024;-75
2020/12/18 05:11:47;;;;;;;11.38;4.45;;;9.40;82.50;;;;;;5091773;28;20024;-74
2020/12/18 05:14:13;;;;;;;7.40;3.38;;;9.40;82.40;;;;;;5106962;28;20028;-74
2020/12/18 05:16:53;;;;;;;9.55;4.70;;;9.40;82.40;;;;;;5112912;28;20501;-74
2020/12/18 05:19:26;;;;;;;15.20;5.83;;;9.40;82.30;;;;;;5112352;28;20031;-74
2020/12/18 05:22:15;;;;;;;10.77;5.10;;;9.40;82.20;;;;;;5103000;28;20356;-74
2020/12/18 05:25:16;;;;;;;4.57;2.72;;;9.40;82.20;;;;;;5079732;28;20682;-75
2020/12/18 05:27:43;;;;;;;9.98;3.67;;;9.40;82.10;;;;;;5112604;28;20403;-74
2020/12/18 05:30:11;;;;;;;11.75;3.00;;;9.40;82.00;;;;;;5112308;28;20026;-74
2020/12/18 05:32:37;;;;;;;14.57;5.68;;;9.40;82.00;;;;;;5113614;28;20035;-74
2020/12/18 05:35:16;;;;;;;13.85;5.82;;;9.30;82.00;;;;;;5112833;28;20051;-74
2020/12/18 05:38:04;;;;;;;6.00;2.92;;;9.30;82.20;;;;;;5108534;27;20034;-74
2020/12/18 05:40:49;;;;;;;9.02;4.30;;;9.30;82.20;;;;;;5113664;28;20528;-74
2020/12/18 05:43:23;;;;;;;12.35;4.05;;;9.20;82.30;;;;;;5112788;28;20430;-74
2020/12/18 05:46:25;;;;;;;14.90;5.82;;;9.20;82.30;;;;;;5111985;28;20050;-74
2020/12/18 05:49:04;;;;;;;9.35;4.88;;;9.30;82.60;;;;;;5112856;28;20029;-74
2020/12/18 05:51:37;;;;;;;10.27;3.53;;;9.20;82.60;;;;;;5112836;28;20034;-74
2020/12/18 05:54:10;;;;;;;6.13;3.42;;;9.20;82.70;;;;;;5111888;28;20494;-74
2020/12/18 05:56:44;;;;;;;15.73;7.22;;;9.10;82.80;;;;;;5112822;28;20475;-74
2020/12/18 05:59:12;;;;;;;4.80;3.10;;;9.10;83.00;;;;;;5114070;28;20059;-75
2020/12/18 06:01:54;;;;;;;10.52;5.70;;;9.10;83.10;;;;;;5128963;27;20024;-74
2020/12/18 06:04:39;;;;;;;7.75;4.80;;;9.10;83.10;;;;;;5113961;28;20402;-74
2020/12/18 06:07:16;;;;;;;9.63;4.53;;;9.10;83.10;;;;;;5112374;28;20399;-74
2020/12/18 06:10:03;;;;;;;8.13;4.85;;;9.10;83.20;;;;;;5114001;28;20031;-75
2020/12/18 06:12:49;;;;;;;7.90;3.38;;;9.10;83.20;;;;;;5113666;28;20119;-72
2020/12/18 06:15:18;;;;;;;4.13;2.90;;;9.10;83.20;;;;;;5111561;28;20070;-76
2020/12/18 06:17:45;;;;;;;5.28;3.50;;;9.10;83.20;;;;;;5112373;28;20028;-75
2020/12/18 06:20:15;;;;;;;8.88;3.22;;;9.10;83.20;;;;;;5112443;28;20031;-73
2020/12/18 06:22:59;;;;;;;13.57;6.70;;;9.10;83.20;;;;;;5111752;28;20048;-75
2020/12/18 06:25:42;;;;;;;16.17;7.50;;;9.10;83.40;;;;;;5089207;28;20097;-74
2020/12/18 06:28:26;;;;;;;17.80;5.88;;;9.10;83.50;;;;;;5097064;28;20140;-74
2020/12/18 06:31:24;;;;;;;10.15;5.35;;;9.20;83.50;;;;;;5089201;28;20028;-73
2020/12/18 06:34:10;;;;;;;3.05;2.10;;;9.20;83.40;;;;;;5090745;28;20390;-74
2020/12/18 06:37:02;;;;;;;9.80;4.57;;;9.20;83.20;;;;;;5088991;28;20043;-74
2020/12/18 06:39:47;;;;;;;8.40;4.18;;;9.30;83.10;;;;;;5090277;28;20356;-75
2020/12/18 06:42:48;;;;;;;6.22;2.78;;;9.30;83.00;;;;;;5058616;28;20166;-74
2020/12/18 06:45:33;;;;;;;7.13;4.03;;;9.30;82.80;;;;;;5087260;28;20035;-75
2020/12/18 06:47:58;;;;;;;9.48;4.00;;;9.40;82.60;;;;;;5090896;28;20040;-75
2020/12/18 06:50:59;;;;;;;14.88;5.93;;;9.40;82.70;;;;;;5089829;28;20089;-76
2020/12/18 06:53:45;;;;;;;10.40;5.60;;;9.40;82.80;;;;;;5073901;28;20036;-73
2020/12/18 06:56:29;;;;;;;12.63;3.85;;;9.40;82.60;;;;;;5089190;28;20034;-75
2020/12/18 06:59:22;;;;;;;11.20;3.97;;;9.40;82.80;;;;;;5092448;28;20077;-74
2020/12/18 07:01:48;;;;;;;7.38;3.55;;;9.50;82.60;;;;;;5092031;28;20055;-74
2020/12/18 07:04:20;;;;;;;14.20;5.70;;;9.50;82.50;;;;;;5093970;28;20035;-74
2020/12/18 07:06:46;;;;;;;3.67;2.35;;;9.50;82.50;;;;;;5091771;28;20040;-73
2020/12/18 07:09:13;;;;;;;4.90;3.08;;;9.50;82.10;;;;;;5094034;28;20103;-72
2020/12/18 07:11:40;;;;;;;3.60;2.50;;;9.50;82.80;;;;;;5092974;28;20043;-69
2020/12/18 07:14:07;;;;;;;7.00;3.22;;;9.50;82.10;;;;;;5089239;28;20027;-75
2020/12/18 07:16:34;;;;;;;8.55;2.88;;;9.50;82.10;;;;;;5093721;28;20028;-72
2020/12/18 07:19:04;;;;;;;10.55;2.53;;;9.50;82.10;;;;;;5093346;28;20020;-73
2020/12/18 07:21:32;;;;;;;9.23;3.42;;;9.50;82.10;;;;;;5092583;28;20020;-74
2020/12/18 07:23:58;;;;;;;5.68;3.83;;;9.60;82.10;;;;;;5094890;28;20357;-72
2020/12/18 07:26:24;;;;;;;15.10;4.50;;;9.60;82.00;;;;;;5094732;28;20071;-72
2020/12/18 07:28:50;;;;;;;9.52;3.15;;;9.50;81.90;;;;;;5095012;28;20072;-73
2020/12/18 07:31:19;;;;;;;6.03;3.63;;;9.60;81.80;;;;;;5095363;28;20028;-72
2020/12/18 07:33:51;;;;;;;10.60;4.95;;;9.50;81.80;;;;;;5093986;28;20165;-73
2020/12/18 07:36:17;;;;;;;9.43;3.05;;;9.60;81.90;;;;;;5095294;28;20387;-75
2020/12/18 07:38:43;;;;;;;8.65;3.67;;;9.60;81.90;;;;;;5094832;28;20493;-72
2020/12/18 07:41:14;;;;;;;8.38;3.45;;;9.50;81.80;;;;;;5090956;28;20020;-73
2020/12/18 07:43:42;;;;;;;8.20;3.28;;;9.60;81.80;;;;;;5094557;28;20036;-72
2020/12/18 07:46:13;;;;;;;10.25;4.13;;;9.60;81.80;;;;;;5093972;28;20046;-73
2020/12/18 07:48:41;;;;;;;6.82;2.47;;;9.60;81.80;;;;;;5094550;28;20164;-65
2020/12/18 07:51:11;;;;;;;7.75;2.97;;;9.50;81.70;;;;;;5094978;28;20039;-74
2020/12/18 07:53:42;;;;;;;10.68;4.10;;;9.50;81.70;;;;;;5094276;28;20382;-72
2020/12/18 07:56:18;;;;;;;7.20;3.47;;;9.60;81.90;;;;;;5094672;28;20036;-73
2020/12/18 07:58:45;;;;;;;8.63;4.10;;;9.50;81.80;;;;;;5104327;28;20036;-73
2020/12/18 08:01:13;;;;;;;8.85;4.50;;;9.50;81.90;;;;;;5092755;28;20123;-72
2020/12/18 08:03:43;;;;;;;5.03;2.60;;;9.50;82.00;;;;;;5091485;28;20118;-72
2020/12/18 08:06:17;;;;;;;16.10;4.15;;;9.50;82.00;;;;;;5092818;28;20050;-73
2020/12/18 08:08:49;;;;;;;12.40;4.18;;;9.50;81.90;;;;;;5091715;28;20032;-73
2020/12/18 08:11:16;;;;;;;8.82;3.78;;;9.50;82.00;;;;;;5092352;28;20063;-73
2020/12/18 08:13:42;;;;;;;6.75;3.80;;;9.50;82.00;;;;;;5093559;28;20024;-73
2020/12/18 08:16:15;;;;;;;3.33;1.90;;;9.50;82.00;;;;;;5098987;28;20425;-73
2020/12/18 08:19:01;;;;;;;5.18;2.38;;;9.50;82.00;;;;;;5114419;28;20516;-74
2020/12/18 08:21:32;;;;;;;8.25;2.90;;;9.50;82.00;;;;;;5113908;28;20043;-73
2020/12/18 08:24:03;;;;;;;5.35;2.25;;;9.50;81.80;;;;;;5114374;27;20466;-81
2020/12/18 08:26:35;;;;;;;4.45;2.50;;;9.50;81.90;;;;;;5114815;28;20093;-86
2020/12/18 08:29:02;;;;;;;8.45;2.25;;;9.50;81.90;;;;;;5114734;28;20487;-85
2020/12/18 08:31:31;;;;;;;2.45;1.63;;;9.50;82.00;;;;;;5114767;28;20039;-76
2020/12/18 08:34:05;;;;;;;8.35;1.85;;;9.40;82.10;;;;;;5114374;28;20024;-79
2020/12/18 08:36:31;;;;;;;;;;;9.40;82.20;;;;;;5114038;28;20031;-73
2020/12/18 08:39:07;;;;;;;4.55;2.13;;;9.40;82.30;;;;;;5113897;28;19908;-72
2020/12/18 08:41:52;;;;;;;2.88;1.75;;;9.30;82.40;;;;;;5113773;28;20032;-73
2020/12/18 08:44:27;;;;;;;6.15;2.30;;;9.30;82.70;;;;;;5113332;28;20077;-70
2020/12/18 08:46:53;;;;;;;3.22;1.67;;;9.30;82.90;;;;;;5102806;28;20032;-73
2020/12/18 08:49:22;;;;;;;2.35;1.08;;;9.20;83.00;;;;;;5093178;28;20089;-73
2020/12/18 08:51:50;;;;;;;2.08;1.30;;;9.20;83.10;;;;;;5093643;28;20067;-73
2020/12/18 08:54:42;;;;;;;2.28;1.30;;;9.20;83.30;;;;;;5093401;28;20028;-73
2020/12/18 08:57:14;;;;;;;4.72;2.50;;;9.20;83.40;;;;;;5092889;28;20060;-76
2020/12/18 08:59:53;;;;;;;9.00;2.90;;;9.20;83.50;;;;;;5093387;28;20055;-71
2020/12/18 09:02:18;;;;;;;5.00;2.70;;;9.10;83.60;;;;;;5093546;28;20028;-74
2020/12/18 09:04:44;;;;;;;3.63;2.17;;;9.10;83.70;;;;;;5092480;28;20036;-74
2020/12/18 09:07:10;;;;;;;4.40;2.17;;;9.10;83.90;;;;;;5093409;28;20040;-74
2020/12/18 09:09:35;;;;;;;4.95;2.53;;;9.10;84.10;;;;;;5093474;28;20039;-74
2020/12/18 09:12:14;;;;;;;3.60;1.50;;;9.10;84.40;;;;;;5091957;28;20036;-74
2020/12/18 09:14:40;;;;;;;4.28;2.53;;;9.10;84.50;;;;;;5093024;28;20028;-69
2020/12/18 09:17:06;;;;;;;4.55;2.28;;;9.10;84.70;;;;;;5093220;28;20035;-74
2020/12/18 09:19:33;;;;;;;3.88;1.98;;;9.10;84.80;;;;;;5092227;28;20028;-75
2020/12/18 09:22:05;;;;;;;3.75;2.63;;;9.10;84.80;;;;;;5092725;28;20080;-76
2020/12/18 09:24:31;;;;;;;3.17;2.20;;;9.10;85.00;;;;;;5092225;28;20032;-76
2020/12/18 09:27:14;;;;;;;3.90;1.80;;;9.10;84.90;;;;;;5092579;28;20044;-76
2020/12/18 09:29:40;;;;;;;3.63;1.38;;;9.10;85.10;;;;;;5092534;28;20044;-76
2020/12/18 09:32:06;;;;;;;7.45;2.83;;;9.10;85.20;;;;;;5092145;28;20455;-76
2020/12/18 09:34:32;;;;;;;2.05;1.42;;;9.10;85.30;;;;;;5092835;28;20085;-76
2020/12/18 09:37:09;;;;;;;2.60;1.98;;;9.10;85.40;;;;;;5092625;28;20125;-76
2020/12/18 09:39:35;;;;;;;5.22;2.88;;;9.00;85.40;;;;;;5092266;28;20050;-75
2020/12/18 09:42:00;;;;;;;8.52;2.53;;;9.10;85.50;;;;;;5092563;28;20024;-73
2020/12/18 09:44:26;;;;;;;3.65;1.88;;;9.00;85.60;;;;;;5092899;28;20031;-73
2020/12/18 09:46:51;;;;;;;3.50;2.17;;;9.10;85.90;;;;;;5091982;28;20382;-74
2020/12/18 09:49:17;;;;;;;5.75;2.67;;;9.10;86.00;;;;;;5092634;28;20390;-74
2020/12/18 09:51:46;;;;;;;4.55;1.73;;;9.00;86.10;;;;;;5092150;28;20040;-74
2020/12/18 09:54:11;;;;;;;4.03;2.50;;;9.10;86.40;;;;;;5092155;28;20052;-73
2020/12/18 09:56:37;;;;;;;8.23;3.10;;;9.00;86.60;;;;;;5090918;28;20066;-85
2020/12/18 09:59:03;;;;;;;4.25;2.30;;;9.00;87.00;;;;;;5092512;28;20111;-75
2020/12/18 10:01:28;;;;;;;7.93;3.40;;;9.00;87.30;;;;;;5092899;28;20043;-74
2020/12/18 10:03:54;;;;;;;9.57;2.90;;;9.00;87.60;;;;;;5092327;28;20028;-74
2020/12/18 10:06:26;;;;;;;10.88;3.88;;;8.90;87.80;;;;;;5092894;28;20434;-81
2020/12/18 10:08:52;;;;;;;6.13;2.88;;;8.90;88.10;;;;;;5083559;28;20069;-72
2020/12/18 10:11:18;;;;;;;8.30;2.90;;;8.90;88.40;;;;;;5092782;28;20451;-72
2020/12/18 10:13:44;;;;;;;9.77;3.00;;;8.90;88.70;;;;;;5091865;28;20039;-72
2020/12/18 10:16:09;;;;;;;4.63;2.88;;;8.90;89.10;;;;;;5089189;28;20032;-72
2020/12/18 10:18:35;;;;;;;6.68;2.90;;;8.90;89.20;;;;;;5092105;28;20122;-71
2020/12/18 10:21:03;;;;;;;8.45;2.95;;;8.90;89.40;;;;;;5091518;28;20062;-71
2020/12/18 10:23:29;;;;;;;5.95;3.05;;;8.90;89.50;;;;;;5092535;28;20114;-71
2020/12/18 10:25:58;;;;;;;4.47;2.92;;;8.90;89.70;;;;;;5092076;28;20040;-76
2020/12/18 10:28:27;;;;;;;9.63;2.95;;;8.90;89.90;;;;;;5088064;28;20048;-83
2020/12/18 10:30:54;;;;;;;4.85;2.47;;;8.90;89.90;;;;;;5091958;28;20028;-80
2020/12/18 10:33:19;;;;;;;4.97;3.17;;;9.00;90.00;;;;;;5094098;28;20043;-74
2020/12/18 10:35:45;;;;;;;8.30;3.05;;;9.00;90.00;;;;;;5095521;28;20028;-74
2020/12/18 10:38:11;;;;;;;6.32;3.33;;;9.00;90.00;;;;;;5096562;28;20031;-73
2020/12/18 10:40:36;;;;;;;4.55;2.58;;;9.00;90.00;;;;;;5096170;28;20505;-68
2020/12/18 10:43:02;;;;;;;9.63;3.10;;;9.00;90.00;;;;;;5094343;28;20031;-73
2020/12/18 10:45:28;;;;;;;11.32;2.95;;;9.00;90.10;;;;;;5094738;28;20028;-71
2020/12/18 10:47:53;;;;;;;6.03;2.00;;;9.10;90.20;;;;;;5094975;28;20028;-72
2020/12/18 10:50:19;;;;;;;8.05;2.85;;;9.00;90.20;;;;;;5095776;28;20418;-74
2020/12/18 10:52:45;;;;;;;5.60;2.45;;;9.10;90.20;;;;;;5096054;28;20042;-73
2020/12/18 10:55:10;;;;;;;7.00;2.92;;;9.10;90.20;;;;;;5095951;28;20020;-72
2020/12/18 10:57:36;;;;;;;8.15;3.60;;;9.10;90.20;;;;;;5095380;28;20502;-76
2020/12/18 11:00:04;;;;;;;5.82;3.10;;;9.10;90.20;;;;;;5094677;28;20107;-75
2020/12/18 11:02:33;;;;;;;3.03;1.88;;;9.10;90.20;;;;;;5095650;28;20028;-70
2020/12/18 11:04:58;;;;;;;3.78;1.85;;;9.20;90.20;;;;;;5094917;28;20554;-74
2020/12/18 11:07:24;;;;;;;5.65;2.88;;;9.20;90.10;;;;;;5095591;28;20069;-73
2020/12/18 11:09:50;;;;;;;6.80;3.03;;;9.20;90.10;;;;;;5095602;28;20061;-77
2020/12/18 11:12:15;;;;;;;7.82;3.00;;;9.30;90.00;;;;;;5094273;28;20511;-73
2020/12/18 11:14:41;;;;;;;5.20;3.75;;;9.30;90.00;;;;;;5093897;28;20032;-74
2020/12/18 11:17:06;;;;;;;2.85;1.85;;;9.40;90.00;;;;;;5093267;28;20024;-72
2020/12/18 11:19:32;;;;;;;5.55;3.60;;;9.40;89.90;;;;;;5094351;28;20019;-74
2020/12/18 11:21:58;;;;;;;5.47;2.60;;;9.40;89.60;;;;;;5093012;28;20466;-72
2020/12/18 11:24:23;;;;;;;3.13;2.40;;;9.50;89.50;;;;;;5092630;28;20024;-72
2020/12/18 11:26:51;;;;;;;9.65;2.85;;;9.50;89.30;;;;;;5093479;28;20118;-73
2020/12/18 11:29:16;;;;;;;2.67;2.28;;;9.60;89.20;;;;;;5092747;28;20048;-73
2020/12/18 11:31:42;;;;;;;3.97;2.28;;;9.60;89.20;;;;;;5091594;28;20034;-73
2020/12/18 11:34:08;;;;;;;1.42;1.33;;;9.70;89.10;;;;;;5092527;28;20032;-73
2020/12/18 11:36:35;;;;;;;6.18;2.45;;;9.70;89.00;;;;;;5094028;28;20074;-75
2020/12/18 11:39:03;;;;;;;5.18;2.20;;;9.70;89.00;;;;;;5092827;28;20060;-71
2020/12/18 11:41:28;;;;;;;6.97;2.17;;;9.70;89.00;;;;;;5093727;28;20035;-72
2020/12/18 11:43:54;;;;;;;5.22;2.92;;;9.80;88.80;;;;;;5092729;28;20024;-70
2020/12/18 11:46:20;;;;;;;3.30;1.88;;;9.80;88.70;;;;;;5092544;28;20032;-68
2020/12/18 11:48:46;;;;;;;10.60;4.32;;;9.90;88.70;;;;;;5093274;28;20524;-68
2020/12/18 11:51:13;;;;;;;4.03;2.58;;;9.90;88.50;;;;;;5093722;28;20037;-68
2020/12/18 11:53:38;;;;;;;5.57;2.17;;;10.00;88.40;;;;;;5092708;28;20107;-67
2020/12/18 11:56:04;;;;;;;9.82;3.63;;;10.00;88.20;;;;;;5093376;28;20115;-68
2020/12/18 11:58:30;;;;;;;11.50;4.32;;;10.00;88.10;;;;;;5093362;28;20036;-69
2020/12/18 12:00:56;;;;;;;2.92;2.22;;;10.10;88.00;;;;;;5093754;28;20060;-69
2020/12/18 12:03:23;;;;;;;8.80;3.67;;;10.10;87.80;;;;;;5094928;28;20028;-68
2020/12/18 12:05:49;;;;;;;4.47;2.58;;;10.10;87.80;;;;;;5094509;28;20043;-68
2020/12/18 12:08:14;;;;;;;3.55;1.67;;;10.20;87.60;;;;;;5093932;28;20032;-67
2020/12/18 12:10:40;;;;;;;5.47;2.40;;;10.20;87.60;;;;;;5091726;28;20039;-68
2020/12/18 12:13:06;;;;;;;7.85;3.70;;;10.30;87.40;;;;;;5093265;28;20019;-68
2020/12/18 12:15:31;;;;;;;8.98;4.07;;;10.30;87.30;;;;;;5094026;28;20403;-68
2020/12/18 12:17:58;;;;;;;5.15;3.08;;;10.30;87.40;;;;;;5089793;28;20126;-68
2020/12/18 12:20:23;;;;;;;5.57;2.40;;;10.30;87.40;;;;;;5092209;28;20070;-68
2020/12/18 12:22:49;;;;;;;2.85;2.15;;;10.40;87.40;;;;;;5092899;28;20072;-68
2020/12/18 12:25:15;;;;;;;4.13;2.05;;;10.40;87.50;;;;;;5092681;28;20030;-68
2020/12/18 12:27:41;;;;;;;7.10;2.42;;;10.40;87.30;;;;;;5091721;28;20047;-68
2020/12/18 12:30:09;;;;;;;16.13;2.40;;;10.50;87.20;;;;;;5092662;28;20047;-68
2020/12/18 12:32:35;;;;;;;1.88;1.45;;;10.50;87.20;;;;;;5092970;28;20051;-68
2020/12/18 12:35:01;;;;;;;4.80;2.40;;;10.50;87.20;;;;;;5091657;28;20468;-68
2020/12/18 12:37:26;;;;;;;6.43;2.67;;;10.60;87.30;;;;;;5093982;28;20035;-68
2020/12/18 12:39:52;;;;;;;3.10;2.10;;;10.60;87.20;;;;;;5093262;28;20107;-68
2020/12/18 12:42:18;;;;;;;17.48;3.80;;;10.60;87.10;;;;;;5091910;28;20360;-68
2020/12/18 12:44:43;;;;;;;6.00;2.03;;;10.70;87.10;;;;;;5092161;28;20484;-68
2020/12/18 12:47:09;;;;;;;5.75;3.08;;;10.60;87.10;;;;;;5092566;28;20067;-68
2020/12/18 12:49:35;;;;;;;3.05;2.13;;;10.70;87.10;;;;;;5091703;28;20065;-68
2020/12/18 12:52:00;;;;;;;5.47;1.73;;;10.70;87.10;;;;;;5092136;28;20111;-68
2020/12/18 12:54:26;;;;;;;7.63;2.70;;;10.80;87.10;;;;;;5092464;28;20357;-68
2020/12/18 12:56:53;;;;;;;7.47;1.77;;;10.70;87.10;;;;;;5090574;28;20426;-68
2020/12/18 12:59:18;;;;;;;2.30;1.33;;;10.80;87.30;;;;;;5093199;28;20379;-65
2020/12/18 13:01:44;;;;;;;6.15;2.15;;;10.80;87.40;;;;;;5093467;28;20116;-65
2020/12/18 13:04:10;;;;;;;13.32;3.03;;;10.80;87.50;;;;;;5092760;28;20051;-65
2020/12/18 13:06:36;;;;;;;9.68;2.92;;;10.80;87.60;;;;;;5093428;28;20176;-66
2020/12/18 13:09:03;;;;;;;9.70;3.47;;;10.90;87.70;;;;;;5093258;28;20092;-66
2020/12/18 13:11:33;;;;;;;6.15;2.85;;;10.90;87.50;;;;;;5092619;28;20033;-66